createdAt,value
2023-04-20T00:04:44.248Z,13.20
2023-04-20T00:21:24.114Z,13.20
2023-04-20T00:26:55.686Z,13.20
2023-04-20T00:29:41.113Z,13.20
2023-04-20T00:32:28.464Z,13.20
2023-04-20T00:35:13.886Z,13.00
2023-04-20T00:37:59.465Z,13.00
2023-04-20T00:40:48.909Z,13.10
2023-04-20T00:43:34.288Z,13.10
2023-04-20T00:46:20.843Z,13.10
2023-04-20T00:49:07.267Z,13.10
2023-04-20T00:51:53.015Z,12.90
2023-04-20T00:54:38.960Z,12.90
2023-04-20T00:57:25.152Z,13.00
2023-04-20T01:00:11.474Z,13.10
2023-04-20T01:02:57.245Z,13.00
2023-04-20T01:05:43.143Z,13.00
2023-04-20T01:08:28.581Z,12.90
2023-04-20T01:11:14.321Z,12.90
2023-04-20T01:13:59.728Z,12.80
2023-04-20T01:16:47.239Z,12.80
2023-04-20T01:19:33.240Z,12.70
2023-04-20T01:22:21.349Z,12.50
2023-04-20T01:25:07.314Z,12.50
2023-04-20T01:27:52.768Z,12.60
2023-04-20T01:30:38.463Z,12.60
2023-04-20T01:33:24.118Z,12.60
2023-04-20T01:36:10.930Z,12.40
2023-04-20T01:38:56.370Z,12.30
2023-04-20T01:41:41.897Z,12.30
2023-04-20T01:44:27.626Z,12.30
2023-04-20T01:47:13.149Z,12.30
2023-04-20T01:49:59.344Z,12.30
2023-04-20T01:52:45.046Z,12.20
2023-04-20T01:55:30.812Z,12.20
2023-04-20T01:58:16.261Z,12.20
2023-04-20T02:01:02.964Z,12.30
2023-04-20T02:03:49.361Z,12.30
2023-04-20T02:06:35.408Z,12.10
2023-04-20T02:09:21.017Z,12.10
2023-04-20T02:12:08.057Z,11.90
2023-04-20T02:14:53.883Z,11.80
2023-04-20T02:17:41.798Z,11.70
2023-04-20T02:20:27.817Z,11.80
2023-04-20T02:23:13.360Z,11.70
2023-04-20T02:25:58.900Z,11.70
2023-04-20T02:28:44.913Z,11.80
2023-04-20T02:31:30.260Z,11.80
2023-04-20T02:34:15.843Z,11.70
2023-04-20T02:37:01.258Z,11.40
2023-04-20T02:39:46.798Z,11.30
2023-04-20T02:42:32.580Z,11.30
2023-04-20T02:45:21.990Z,11.30
2023-04-20T02:48:07.717Z,11.20
2023-04-20T02:50:57.418Z,11.40
2023-04-20T02:53:45.137Z,11.50
2023-04-20T02:56:39.980Z,11.30
2023-04-20T02:59:28.920Z,11.20
2023-04-20T03:02:24.991Z,11.20
2023-04-20T03:05:13.390Z,11.10
2023-04-20T03:08:05.252Z,11.20
2023-04-20T03:10:50.910Z,11.20
2023-04-20T03:13:38.715Z,11.20
2023-04-20T03:16:24.563Z,11.20
2023-04-20T03:19:12.673Z,11.10
2023-04-20T03:21:58.158Z,11.10
2023-04-20T03:24:43.779Z,11.10
2023-04-20T03:27:59.245Z,11.00
2023-04-20T03:30:45.313Z,11.10
2023-04-20T03:33:34.544Z,11.10
2023-04-20T03:36:21.261Z,11.10
2023-04-20T03:39:07.101Z,11.10
2023-04-20T03:41:52.679Z,11.10
2023-04-20T03:44:38.287Z,11.00
2023-04-20T03:47:24.500Z,11.00
2023-04-20T03:50:10.606Z,11.00
2023-04-20T03:52:58.374Z,11.20
2023-04-20T03:55:44.169Z,11.20
2023-04-20T03:58:33.888Z,11.10
2023-04-20T04:01:29.845Z,11.20
2023-04-20T04:04:16.188Z,11.10
2023-04-20T04:07:02.169Z,11.10
2023-04-20T04:09:47.846Z,10.90
2023-04-20T04:12:34.742Z,10.80
2023-04-20T04:15:20.491Z,11.00
2023-04-20T04:18:12.407Z,11.10
2023-04-20T04:20:59.706Z,11.20
2023-04-20T04:23:45.622Z,11.10
2023-04-20T04:26:52.337Z,11.20
2023-04-20T04:29:38.739Z,11.40
2023-04-20T04:32:28.124Z,11.30
2023-04-20T04:35:14.068Z,11.20
2023-04-20T04:38:01.057Z,11.20
2023-04-20T04:40:48.249Z,11.30
2023-04-20T04:43:35.008Z,11.30
2023-04-20T04:46:33.716Z,11.10
2023-04-20T04:49:20.541Z,11.10
2023-04-20T04:52:06.577Z,10.90
2023-04-20T04:54:52.482Z,11.00
2023-04-20T04:57:44.518Z,11.10
2023-04-20T05:00:32.584Z,11.20
2023-04-20T05:03:18.102Z,11.20
2023-04-20T05:06:03.857Z,11.20
2023-04-20T05:08:49.558Z,11.00
2023-04-20T05:11:35.254Z,11.10
2023-04-20T05:14:20.953Z,11.00
2023-04-20T05:17:06.499Z,10.90
2023-04-20T05:19:51.848Z,10.80
2023-04-20T05:22:37.947Z,10.90
2023-04-20T05:25:23.591Z,10.80
2023-04-20T05:28:09.448Z,10.70
2023-04-20T05:30:55.372Z,10.80
2023-04-20T05:33:41.020Z,10.80
2023-04-20T05:36:27.251Z,10.80
2023-04-20T05:39:12.814Z,10.80
2023-04-20T05:41:58.572Z,10.90
2023-04-20T05:44:44.266Z,10.80
2023-04-20T05:47:29.868Z,10.80
2023-04-20T05:50:15.567Z,10.70
2023-04-20T05:53:01.144Z,10.60
2023-04-20T05:55:46.718Z,10.50
2023-04-20T05:58:32.833Z,10.70
2023-04-20T06:01:18.577Z,10.60
2023-04-20T06:04:04.266Z,10.50
2023-04-20T06:06:49.620Z,10.50
2023-04-20T06:09:35.403Z,10.50
2023-04-20T06:12:20.919Z,10.50
2023-04-20T06:15:08.428Z,10.50
2023-04-20T06:17:53.959Z,10.50
2023-04-20T06:20:40.402Z,10.40
2023-04-20T06:23:26.060Z,10.50
2023-04-20T06:26:11.925Z,10.40
2023-04-20T06:28:57.533Z,10.40
2023-04-20T06:31:43.359Z,10.40
2023-04-20T06:34:29.116Z,10.40
2023-04-20T06:37:14.873Z,10.40
2023-04-20T06:40:00.991Z,10.50
2023-04-20T06:42:46.754Z,10.50
2023-04-20T06:45:33.986Z,10.50
2023-04-20T06:48:31.433Z,10.30
2023-04-20T06:51:18.070Z,10.30
2023-04-20T06:54:03.894Z,10.30
2023-04-20T06:56:49.547Z,10.30
2023-04-20T06:59:35.715Z,10.30
2023-04-20T07:02:21.590Z,14.60
2023-04-20T07:05:07.404Z,10.50
2023-04-20T07:07:53.200Z,10.40
2023-04-20T07:10:38.676Z,10.50
2023-04-20T07:13:24.442Z,10.50
2023-04-20T07:16:10.792Z,10.60
2023-04-20T07:18:56.068Z,10.50
2023-04-20T07:21:41.645Z,10.50
2023-04-20T07:24:29.047Z,10.60
2023-04-20T07:27:14.374Z,10.60
2023-04-20T07:30:00.157Z,11.20
2023-04-20T07:32:45.888Z,11.80
2023-04-20T07:35:31.444Z,12.20
2023-04-20T07:38:17.096Z,12.60
2023-04-20T07:41:03.139Z,12.90
2023-04-20T07:43:48.890Z,13.20
2023-04-20T07:46:34.427Z,13.40
2023-04-20T07:49:20.433Z,9.90
2023-04-20T07:52:16.486Z,13.70
2023-04-20T07:55:02.651Z,13.80
2023-04-20T08:00:51.132Z,14.00
2023-04-20T08:03:37.031Z,14.10
2023-04-20T08:06:22.750Z,14.20
2023-04-20T08:09:08.443Z,14.30
2023-04-20T08:11:54.128Z,14.30
2023-04-20T08:14:40.679Z,14.30
2023-04-20T08:17:26.759Z,14.40
2023-04-20T08:20:12.623Z,14.40
2023-04-20T08:22:58.211Z,14.50
2023-04-20T08:25:43.975Z,14.50
2023-04-20T08:28:33.385Z,14.60
2023-04-20T08:31:19.082Z,14.60
2023-04-20T08:34:04.813Z,14.60
2023-04-20T08:36:50.947Z,14.70
2023-04-20T08:39:38.195Z,14.70
2023-04-20T08:42:23.865Z,14.70
2023-04-20T08:45:09.525Z,14.80
2023-04-20T08:47:56.870Z,14.80
2023-04-20T08:50:42.612Z,14.80
2023-04-20T08:53:27.961Z,14.80
2023-04-20T08:56:13.428Z,14.90
2023-04-20T08:58:59.094Z,14.90
2023-04-20T09:01:45.321Z,15.00
2023-04-20T09:04:31.294Z,15.00
2023-04-20T09:07:21.676Z,15.00
2023-04-20T09:10:07.374Z,15.00
2023-04-20T09:12:53.414Z,15.10
2023-04-20T09:15:38.824Z,15.10
2023-04-20T09:18:25.132Z,15.10
2023-04-20T09:21:10.838Z,15.10
2023-04-20T09:24:03.719Z,15.20
2023-04-20T09:26:49.848Z,15.30
2023-04-20T09:29:35.349Z,15.30
2023-04-20T09:32:24.676Z,15.40
2023-04-20T09:35:10.516Z,15.50
2023-04-20T09:37:56.210Z,15.50
2023-04-20T09:40:42.431Z,15.50
2023-04-20T09:43:28.954Z,15.50
2023-04-20T09:46:14.410Z,15.50
2023-04-20T09:49:00.879Z,15.60
2023-04-20T09:51:46.513Z,15.60
2023-04-20T09:54:32.334Z,15.60
2023-04-20T09:57:19.212Z,15.60
2023-04-20T10:00:07.072Z,15.60
2023-04-20T10:02:52.848Z,15.70
2023-04-20T10:05:39.894Z,15.70
2023-04-20T10:08:25.891Z,15.70
2023-04-20T10:11:11.822Z,15.80
2023-04-20T10:13:57.962Z,15.80
2023-04-20T10:16:44.301Z,15.80
2023-04-20T10:19:39.820Z,15.90
2023-04-20T10:22:26.832Z,16.00
2023-04-20T10:25:20.539Z,16.00
2023-04-20T10:28:09.565Z,16.10
2023-04-20T10:30:54.982Z,16.10
2023-04-20T10:33:55.516Z,16.20
2023-04-20T10:36:41.700Z,16.20
2023-04-20T10:39:29.541Z,16.20
2023-04-20T10:42:17.541Z,16.20
2023-04-20T10:45:03.928Z,16.30
2023-04-20T10:47:49.360Z,16.30
2023-04-20T10:50:35.216Z,16.40
2023-04-20T10:53:21.624Z,16.40
2023-04-20T10:56:07.729Z,16.50
2023-04-20T10:58:53.956Z,16.40
2023-04-20T11:01:39.651Z,16.40
2023-04-20T11:04:32.482Z,16.40
2023-04-20T11:07:18.911Z,16.50
2023-04-20T11:10:04.837Z,16.50
2023-04-20T11:12:51.099Z,16.60
2023-04-20T11:15:36.983Z,16.60
2023-04-20T11:18:22.455Z,16.60
2023-04-20T11:21:08.082Z,16.70
2023-04-20T11:23:53.816Z,16.70
2023-04-20T11:26:43.548Z,16.70
2023-04-20T11:29:33.593Z,16.80
2023-04-20T11:32:19.183Z,16.70
2023-04-20T11:35:07.862Z,16.80
2023-04-20T11:37:55.215Z,16.80
2023-04-20T11:40:40.785Z,16.90
2023-04-20T11:43:26.956Z,17.00
2023-04-20T11:46:14.722Z,17.00
2023-04-20T11:49:01.104Z,17.10
2023-04-20T11:51:47.495Z,17.00
2023-04-20T11:54:35.453Z,17.00
2023-04-20T11:57:24.129Z,17.00
2023-04-20T12:00:09.891Z,16.90
2023-04-20T12:03:02.483Z,17.00
2023-04-20T12:05:48.842Z,17.00
2023-04-20T12:08:34.173Z,17.00
2023-04-20T12:11:20.246Z,17.00
2023-04-20T12:14:06.107Z,17.10
2023-04-20T12:16:51.866Z,17.10
2023-04-20T12:19:37.940Z,17.20
2023-04-20T12:22:23.893Z,17.10
2023-04-20T12:25:09.378Z,17.20
2023-04-20T12:27:54.798Z,17.20
2023-04-20T12:30:40.438Z,17.30
2023-04-20T12:33:26.039Z,17.30
2023-04-20T12:36:11.674Z,17.30
2023-04-20T12:38:58.044Z,17.40
2023-04-20T12:41:43.459Z,17.40
2023-04-20T12:44:28.918Z,17.40
2023-04-20T12:47:14.947Z,17.50
2023-04-20T12:50:00.465Z,17.60
2023-04-20T12:52:45.992Z,17.70
2023-04-20T12:55:32.181Z,17.70
2023-04-20T12:58:17.860Z,17.60
2023-04-20T13:01:03.688Z,17.70
2023-04-20T13:03:51.000Z,17.70
2023-04-20T13:06:36.492Z,17.70
2023-04-20T13:09:26.905Z,17.80
2023-04-20T13:12:13.065Z,17.70
2023-04-20T13:14:58.454Z,17.80
2023-04-20T13:17:44.126Z,17.80
2023-04-20T13:20:30.581Z,17.90
2023-04-20T13:23:16.086Z,18.00
2023-04-20T13:26:01.755Z,18.10
2023-04-20T13:28:46.978Z,18.20
2023-04-20T13:31:33.549Z,18.30
2023-04-20T13:34:19.824Z,18.50
2023-04-20T13:37:05.802Z,18.70
2023-04-20T13:39:51.472Z,18.90
2023-04-20T13:42:37.303Z,19.20
2023-04-20T13:45:22.656Z,19.30
2023-04-20T13:48:08.399Z,19.40
2023-04-20T13:50:54.262Z,19.50
2023-04-20T13:53:39.951Z,19.60
2023-04-20T13:56:25.842Z,19.50
2023-04-20T13:59:12.069Z,19.40
2023-04-20T14:01:57.425Z,19.60
2023-04-20T14:04:43.388Z,19.80
2023-04-20T14:07:29.796Z,19.80
2023-04-20T14:10:15.526Z,19.70
2023-04-20T14:13:01.766Z,19.60
2023-04-20T14:15:47.218Z,19.80
2023-04-20T14:18:32.839Z,20.10
2023-04-20T14:21:18.554Z,20.40
2023-04-20T14:24:04.326Z,20.50
2023-04-20T14:26:53.104Z,20.50
2023-04-20T14:29:38.490Z,20.60
2023-04-20T14:32:24.096Z,20.50
2023-04-20T14:35:09.704Z,20.50
2023-04-20T14:37:55.194Z,20.40
2023-04-20T14:40:41.529Z,20.30
2023-04-20T14:43:27.157Z,20.20
2023-04-20T14:46:13.208Z,20.10
2023-04-20T14:48:58.534Z,19.90
2023-04-20T14:51:44.195Z,19.80
2023-04-20T14:54:30.401Z,19.70
2023-04-20T14:57:16.066Z,19.60
2023-04-20T15:00:01.807Z,19.40
2023-04-20T15:02:47.763Z,19.30
2023-04-20T15:05:34.199Z,19.20
2023-04-20T15:08:19.848Z,19.10
2023-04-20T15:11:05.992Z,19.10
2023-04-20T15:13:52.734Z,19.00
2023-04-20T15:16:38.173Z,19.00
2023-04-20T15:19:23.768Z,18.90
2023-04-20T15:22:09.755Z,18.90
2023-04-20T15:24:56.113Z,18.90
2023-04-20T15:27:41.571Z,18.80
2023-04-20T15:30:28.893Z,18.80
2023-04-20T15:33:15.078Z,18.80
2023-04-20T15:36:00.570Z,18.60
2023-04-20T15:38:46.681Z,18.70
2023-04-20T15:41:32.367Z,18.70
2023-04-20T15:44:18.303Z,18.70
2023-04-20T15:47:04.172Z,18.60
2023-04-20T15:49:49.974Z,18.60
2023-04-20T15:52:35.484Z,18.60
2023-04-20T15:55:21.168Z,18.60
2023-04-20T15:58:07.211Z,18.60
2023-04-20T16:00:52.729Z,18.60
2023-04-20T16:03:39.363Z,18.50
2023-04-20T16:06:25.356Z,18.50
2023-04-20T16:09:10.600Z,18.50
2023-04-20T16:11:56.439Z,18.50
2023-04-20T16:14:41.901Z,18.40
2023-04-20T16:17:27.731Z,18.50
2023-04-20T16:20:13.774Z,18.40
2023-04-20T16:22:59.126Z,18.40
2023-04-20T16:25:44.790Z,18.40
2023-04-20T16:28:31.030Z,18.40
2023-04-20T16:31:17.794Z,18.40
2023-04-20T16:34:04.218Z,18.40
2023-04-20T16:36:50.334Z,18.30
2023-04-20T16:39:37.357Z,18.40
2023-04-20T16:42:22.926Z,18.40
2023-04-20T16:45:08.758Z,18.40
2023-04-20T16:47:54.091Z,18.30
2023-04-20T16:50:40.934Z,18.30
2023-04-20T16:53:27.453Z,18.30
2023-04-20T16:56:13.117Z,18.30
2023-04-20T16:59:00.796Z,18.30
2023-04-20T17:01:48.509Z,18.20
2023-04-20T17:04:34.749Z,18.30
2023-04-20T17:07:21.106Z,18.20
2023-04-20T17:10:07.126Z,18.20
2023-04-20T17:12:52.745Z,18.20
2023-04-20T17:15:40.058Z,18.10
2023-04-20T17:18:25.534Z,18.20
2023-04-20T17:21:10.877Z,18.20
2023-04-20T17:23:56.654Z,18.20
2023-04-20T17:26:42.038Z,18.20
2023-04-20T17:29:28.221Z,18.20
2023-04-20T17:32:14.189Z,18.20
2023-04-20T17:34:59.809Z,18.20
2023-04-20T17:37:45.780Z,18.20
2023-04-20T17:40:31.357Z,18.20
2023-04-20T17:43:16.999Z,18.20
2023-04-20T17:46:02.466Z,18.20
2023-04-20T17:48:48.068Z,18.20
2023-04-20T17:51:33.712Z,18.20
2023-04-20T17:54:19.282Z,18.10
2023-04-20T17:57:06.498Z,18.20
2023-04-20T17:59:52.301Z,18.10
2023-04-20T18:02:38.206Z,18.10
2023-04-20T18:05:24.038Z,18.10
2023-04-20T18:08:10.349Z,18.00
2023-04-20T18:10:56.013Z,18.10
2023-04-20T18:13:41.566Z,18.00
2023-04-20T18:16:27.730Z,18.00
2023-04-20T18:19:14.224Z,18.00
2023-04-20T18:22:00.609Z,18.00
2023-04-20T18:24:45.884Z,17.90
2023-04-20T18:27:31.945Z,17.90
2023-04-20T18:30:20.083Z,17.90
2023-04-20T18:33:06.460Z,17.90
2023-04-20T18:35:52.204Z,17.90
2023-04-20T18:38:37.830Z,17.80
2023-04-20T18:41:24.370Z,17.70
2023-04-20T18:44:09.786Z,17.60
2023-04-20T18:46:55.611Z,17.60
2023-04-20T18:49:41.019Z,17.50
2023-04-20T18:52:26.746Z,17.50
2023-04-20T18:55:12.287Z,17.40
2023-04-20T18:57:57.840Z,17.40
2023-04-20T19:00:43.576Z,17.30
2023-04-20T19:03:29.394Z,17.30
2023-04-20T19:06:15.153Z,17.30
2023-04-20T19:09:01.320Z,17.30
2023-04-20T19:11:46.751Z,17.30
2023-04-20T19:14:32.558Z,17.20
2023-04-20T19:17:18.090Z,17.20
2023-04-20T19:20:04.280Z,17.20
2023-04-20T19:22:49.864Z,17.20
2023-04-20T19:25:37.078Z,19.10
2023-04-20T19:28:24.204Z,17.10
2023-04-20T19:31:11.002Z,17.20
2023-04-20T19:33:57.321Z,17.20
2023-04-20T19:36:43.083Z,17.20
2023-04-20T19:39:29.278Z,16.20
2023-04-20T19:42:15.064Z,17.10
2023-04-20T19:45:00.758Z,17.20
2023-04-20T19:47:46.317Z,17.10
2023-04-20T19:50:31.858Z,17.10
2023-04-20T19:53:17.289Z,17.10
2023-04-20T19:56:04.241Z,17.10
2023-04-20T19:58:51.833Z,17.10
2023-04-20T20:01:37.530Z,17.10
2023-04-20T20:04:23.409Z,17.10
2023-04-20T20:07:09.007Z,17.10
2023-04-20T20:09:54.467Z,17.10
2023-04-20T20:12:40.251Z,17.10
2023-04-20T20:15:25.840Z,17.10
2023-04-20T20:18:12.193Z,17.10
2023-04-20T20:20:57.838Z,17.10
2023-04-20T20:23:43.629Z,17.10
2023-04-20T20:26:29.278Z,17.10
2023-04-20T20:29:15.755Z,17.00
2023-04-20T20:32:01.355Z,17.10
2023-04-20T20:34:47.256Z,17.10
2023-04-20T20:37:34.821Z,17.00
2023-04-20T20:40:20.326Z,17.00
2023-04-20T20:43:05.960Z,17.00
2023-04-20T20:45:52.341Z,17.00
2023-04-20T20:48:37.834Z,17.00
2023-04-20T20:51:23.347Z,17.00
2023-04-20T20:54:09.271Z,17.00
2023-04-20T20:56:54.564Z,16.20
2023-04-20T20:59:40.278Z,15.30
2023-04-20T21:02:26.441Z,15.30
2023-04-20T21:05:12.166Z,14.90
2023-04-20T21:07:57.824Z,14.60
2023-04-20T21:10:43.358Z,14.30
2023-04-20T21:13:28.984Z,14.20
2023-04-20T21:16:14.693Z,14.00
2023-04-20T21:18:59.932Z,13.90
2023-04-20T21:21:45.862Z,13.80
2023-04-20T21:24:31.219Z,13.70
2023-04-20T21:27:16.821Z,13.60
2023-04-20T21:30:02.676Z,13.50
2023-04-20T21:32:48.053Z,13.40
2023-04-20T21:35:33.841Z,13.40
2023-04-20T21:38:19.290Z,13.40
2023-04-20T21:41:04.922Z,13.40
2023-04-20T21:43:51.776Z,13.40
2023-04-20T21:46:37.487Z,13.30
2023-04-20T21:49:22.984Z,13.20
2023-04-20T21:52:08.649Z,13.10
2023-04-20T21:54:54.349Z,13.20
2023-04-20T21:57:39.860Z,13.10
2023-04-20T22:00:25.542Z,13.10
2023-04-20T22:03:11.394Z,13.10
2023-04-20T22:05:56.780Z,13.00
2023-04-20T22:08:42.361Z,13.00
2023-04-20T22:11:28.002Z,13.00
2023-04-20T22:14:13.779Z,13.00
2023-04-20T22:16:59.568Z,13.00
2023-04-20T22:19:45.348Z,13.00
2023-04-20T22:22:30.698Z,13.00
2023-04-20T22:25:16.341Z,12.90
2023-04-20T22:28:01.897Z,12.90
2023-04-20T22:30:47.510Z,12.90
2023-04-20T22:33:33.145Z,12.90
2023-04-20T22:36:18.858Z,12.90
2023-04-20T22:39:04.665Z,13.00
2023-04-20T22:41:50.263Z,12.90
2023-04-20T22:44:35.989Z,13.10
2023-04-20T22:47:21.799Z,13.00
2023-04-20T22:50:09.589Z,12.90
2023-04-20T22:52:54.984Z,13.00
2023-04-20T22:55:41.093Z,13.00
2023-04-20T22:58:26.730Z,12.90
2023-04-20T23:01:12.420Z,12.80
2023-04-20T23:03:58.199Z,12.80
2023-04-20T23:06:47.254Z,12.90
2023-04-20T23:09:32.926Z,12.80
2023-04-20T23:12:20.659Z,12.80
2023-04-20T23:15:06.854Z,12.70
2023-04-20T23:17:52.598Z,12.70
2023-04-20T23:20:38.135Z,12.70
2023-04-20T23:23:23.572Z,12.60
2023-04-20T23:26:09.160Z,12.50
2023-04-20T23:28:54.941Z,12.40
2023-04-20T23:31:40.749Z,12.50
2023-04-20T23:34:26.163Z,12.40
2023-04-20T23:37:11.963Z,12.50
2023-04-20T23:39:57.536Z,12.40
2023-04-20T23:42:43.267Z,12.30
2023-04-20T23:45:28.706Z,12.30
2023-04-20T23:48:14.297Z,12.20
2023-04-20T23:51:00.338Z,12.00
2023-04-20T23:53:45.911Z,12.10
2023-04-20T23:56:31.500Z,12.20
2023-04-20T23:59:17.587Z,12.20
